Time;durP1;ratioP1;P1;durP2;ratioP2;P2;SDS_P1;SDS_P2;PMS_P1;PMS_P2;Temp;Humidity;BMP_temperature;BMP_pressure;BME280_temperature;BME280_humidity;BME280_pressure;Samples;Min_cycle;Max_cycle;Signal;HPM_P1;HPM_P2
2022/07/22 00:00:08;;;;;;;7.28;2.25;;;;;;;15.39;100.00;101765.31;2016976;29;31880;-71
2022/07/22 00:01:13;;;;;;;4.28;1.45;;;;;;;15.36;100.00;101766.28;2017245;29;28192;-70
2022/07/22 00:02:17;;;;;;;3.70;1.65;;;;;;;15.35;100.00;101764.50;2016913;29;20164;-71
2022/07/22 00:03:20;;;;;;;6.15;1.70;;;;;;;15.34;100.00;101761.84;2016052;29;36079;-71
2022/07/22 00:04:22;;;;;;;6.55;1.80;;;;;;;15.33;100.00;101771.78;2016092;29;34067;-70
2022/07/22 00:05:28;;;;;;;7.50;1.60;;;;;;;15.32;100.00;101761.03;2017036;29;28545;-70
2022/07/22 00:06:30;;;;;;;7.53;1.65;;;;;;;15.33;100.00;101768.19;2016699;29;35552;-70
2022/07/22 00:07:32;;;;;;;6.25;1.38;;;;;;;15.31;100.00;101770.03;2016679;29;37286;-71
2022/07/22 00:08:34;;;;;;;3.97;1.90;;;;;;;15.32;100.00;101764.59;2016134;29;32002;-71
2022/07/22 00:09:36;;;;;;;7.68;1.60;;;;;;;15.30;100.00;101770.97;2015993;29;36225;-71
2022/07/22 00:10:38;;;;;;;6.43;1.90;;;;;;;15.28;100.00;101769.19;2016349;29;29833;-71
2022/07/22 00:11:40;;;;;;;5.03;1.60;;;;;;;15.31;100.00;101775.44;2016672;29;35074;-70
2022/07/22 00:12:41;;;;;;;6.53;1.55;;;;;;;15.27;100.00;101777.31;2016493;29;35864;-71
2022/07/22 00:13:45;;;;;;;5.28;1.65;;;;;;;15.25;100.00;101777.41;2016837;29;32784;-70
2022/07/22 00:14:46;;;;;;;3.97;1.80;;;;;;;15.24;100.00;101772.91;2016356;29;37340;-71
2022/07/22 00:15:48;;;;;;;6.38;1.90;;;;;;;15.26;100.00;101770.19;2016634;29;35472;-71
2022/07/22 00:16:50;;;;;;;6.28;1.90;;;;;;;15.26;100.00;101771.06;2016952;29;29738;-70
2022/07/22 00:17:52;;;;;;;4.35;1.70;;;;;;;15.26;100.00;101778.28;2016462;29;42731;-71
2022/07/22 00:18:53;;;;;;;10.02;2.13;;;;;;;15.27;100.00;101772.84;2016539;29;35935;-71
2022/07/22 00:19:55;;;;;;;6.82;1.50;;;;;;;15.26;100.00;101768.34;2016912;29;26441;-71
2022/07/22 00:20:57;;;;;;;7.18;1.80;;;;;;;15.27;100.00;101772.84;2016688;29;29259;-71
2022/07/22 00:21:59;;;;;;;6.22;1.80;;;;;;;15.26;100.00;101772.88;2016851;29;27124;-70
2022/07/22 00:23:01;;;;;;;6.78;1.95;;;;;;;15.30;100.00;101781.78;2016967;29;36418;-71
2022/07/22 00:24:03;;;;;;;5.88;2.08;;;;;;;15.30;100.00;101784.47;2016267;29;34123;-70
2022/07/22 00:25:06;;;;;;;6.10;2.25;;;;;;;15.29;100.00;101778.19;2016974;29;31850;-71
2022/07/22 00:26:08;;;;;;;3.70;1.70;;;;;;;15.26;100.00;101779.16;2016474;29;30228;-71
2022/07/22 00:27:10;;;;;;;6.65;2.22;;;;;;;15.27;100.00;101786.34;2016746;29;34538;-70
2022/07/22 00:28:13;;;;;;;6.68;1.90;;;;;;;15.31;100.00;101784.44;2016071;29;23971;-71
2022/07/22 00:29:18;;;;;;;7.68;2.25;;;;;;;15.28;100.00;101787.22;2015986;29;32990;-71
2022/07/22 00:30:19;;;;;;;3.63;1.90;;;;;;;15.28;100.00;101788.09;2023848;29;24462;-71
2022/07/22 00:31:21;;;;;;;8.05;1.98;;;;;;;15.24;100.00;101783.72;2023703;29;30996;-70
2022/07/22 00:32:23;;;;;;;6.75;1.77;;;;;;;15.30;100.00;101787.16;2016759;29;20148;-71
2022/07/22 00:33:25;;;;;;;4.00;1.50;;;;;;;15.28;100.00;101788.09;2016807;29;32018;-71
2022/07/22 00:34:27;;;;;;;8.77;1.70;;;;;;;15.25;100.00;101784.59;2015813;29;28486;-70
2022/07/22 00:35:28;;;;;;;4.10;1.20;;;;;;;15.25;100.00;101785.50;2016905;29;20037;-71
2022/07/22 00:36:33;;;;;;;2.33;1.17;;;;;;;15.23;100.00;101781.06;2015942;29;22006;-71
2022/07/22 00:37:37;;;;;;;6.82;1.30;;;;;;;15.24;100.00;101794.50;2017122;29;21035;-70
2022/07/22 00:38:42;;;;;;;7.05;1.63;;;;;;;15.23;100.00;101787.31;2016318;29;20058;-71
2022/07/22 00:39:44;;;;;;;7.03;1.27;;;;;;;15.23;100.00;101783.75;2015721;29;28461;-71
2022/07/22 00:40:45;;;;;;;4.60;1.52;;;;;;;15.22;100.00;101788.28;2016695;29;25038;-71
2022/07/22 00:41:48;;;;;;;3.80;1.35;;;;;;;15.20;100.00;101782.03;2016578;29;26648;-71
2022/07/22 00:42:50;;;;;;;3.22;1.20;;;;;;;15.20;100.00;101787.44;2016752;29;25258;-71
2022/07/22 00:44:03;;;;;;;5.53;1.20;;;;;;;15.17;100.00;101787.50;2023453;29;31968;-71
2022/07/22 00:45:07;;;;;;;6.80;1.20;;;;;;;15.15;100.00;101783.97;2022646;29;25801;-70
2022/07/22 00:46:09;;;;;;;5.97;1.45;;;;;;;15.15;100.00;101788.50;2017505;29;20872;-71
2022/07/22 00:47:13;;;;;;;5.35;1.38;;;;;;;15.15;100.00;101786.69;2016274;29;29110;-70
2022/07/22 00:48:15;;;;;;;6.22;1.10;;;;;;;15.15;100.00;101783.09;2023927;29;20152;-70
2022/07/22 00:49:20;;;;;;;6.07;0.95;;;;;;;15.14;100.00;101786.72;2023812;29;20044;-71
2022/07/22 00:50:23;;;;;;;4.88;1.00;;;;;;;15.14;100.00;101779.50;2016390;29;30506;-70
2022/07/22 00:51:27;;;;;;;7.07;0.95;;;;;;;15.15;100.00;101793.91;2008326;29;23621;-70
2022/07/22 00:52:30;;;;;;;6.60;1.15;;;;;;;15.12;100.00;101789.44;2001858;29;20107;-70
2022/07/22 00:53:32;;;;;;;6.38;1.30;;;;;;;15.13;100.00;101785.84;2016373;29;20038;-70
2022/07/22 00:54:37;;;;;;;5.10;1.02;;;;;;;15.11;100.00;101793.09;2015643;29;22308;-71
2022/07/22 00:55:39;;;;;;;4.60;0.85;;;;;;;15.11;100.00;101785.00;2017237;29;20899;-70
2022/07/22 00:56:43;;;;;;;3.60;0.90;;;;;;;15.12;100.00;101792.16;2016013;29;26378;-70
2022/07/22 00:57:45;;;;;;;2.30;0.90;;;;;;;15.11;100.00;101792.19;2009076;29;21027;-70
2022/07/22 00:58:49;;;;;;;5.72;1.17;;;;;;;15.11;100.00;101793.09;2016066;29;26421;-71
2022/07/22 00:59:51;;;;;;;2.95;1.10;;;;;;;15.11;100.00;101797.59;2017116;29;20878;-70
2022/07/22 01:00:56;;;;;;;4.22;1.00;;;;;;;15.10;100.00;101794.00;2023252;29;21002;-70
2022/07/22 01:01:58;;;;;;;7.00;1.23;;;;;;;15.06;100.00;101797.72;2022757;29;24722;-70
2022/07/22 01:03:00;;;;;;;6.05;1.10;;;;;;;15.04;100.00;101796.91;2016336;29;20049;-71
2022/07/22 01:04:04;;;;;;;6.15;1.08;;;;;;;15.05;100.00;101796.81;2009274;29;20085;-70
2022/07/22 01:05:06;;;;;;;4.60;1.00;;;;;;;15.04;100.00;101799.59;2015619;29;32729;-70
2022/07/22 01:06:10;;;;;;;3.42;1.20;;;;;;;15.04;100.00;101802.28;2017009;29;20180;-70
2022/07/22 01:07:12;;;;;;;3.80;1.20;;;;;;;15.04;100.00;101803.16;2016656;29;20041;-70
2022/07/22 01:08:15;;;;;;;5.80;1.10;;;;;;;15.03;100.00;101795.13;2017204;29;20965;-70
2022/07/22 01:09:17;;;;;;;5.32;1.13;;;;;;;15.03;100.00;101796.00;2016430;29;20096;-70
2022/07/22 01:10:19;;;;;;;4.45;1.20;;;;;;;15.03;100.00;101805.91;2016091;29;20054;-70
2022/07/22 01:11:23;;;;;;;3.70;1.02;;;;;;;15.02;100.00;101806.81;2007473;29;32361;-70
2022/07/22 01:12:25;;;;;;;4.45;1.17;;;;;;;15.03;100.00;101808.59;2016353;29;31329;-70
2022/07/22 01:13:27;;;;;;;5.00;1.13;;;;;;;15.02;100.00;101810.41;2023816;29;20969;-70
2022/07/22 01:14:29;;;;;;;3.30;1.20;;;;;;;15.02;100.00;101817.59;2016442;29;20053;-70
2022/07/22 01:15:33;;;;;;;5.50;1.10;;;;;;;15.00;100.00;101809.59;2008555;29;20885;-71
2022/07/22 01:16:36;;;;;;;3.13;0.90;;;;;;;15.02;100.00;101815.81;2016606;29;26999;-70
2022/07/22 01:17:38;;;;;;;5.38;1.10;;;;;;;15.00;100.00;101804.19;2015269;29;27632;-70
2022/07/22 01:18:40;;;;;;;5.82;1.13;;;;;;;15.01;100.00;101807.75;2008840;29;20119;-70
2022/07/22 01:19:42;;;;;;;7.07;1.10;;;;;;;15.02;100.00;101815.81;2016149;29;20130;-70
2022/07/22 01:20:44;;;;;;;6.18;1.17;;;;;;;15.02;100.00;101812.22;2016465;29;32439;-70
2022/07/22 01:21:48;;;;;;;5.63;1.00;;;;;;;15.02;100.00;101812.22;2015810;29;20046;-71
2022/07/22 01:22:50;;;;;;;5.80;1.48;;;;;;;15.03;100.00;101801.38;2016503;29;24922;-71
2022/07/22 01:23:54;;;;;;;4.28;1.02;;;;;;;15.05;100.00;101806.75;2023797;29;20958;-70
2022/07/22 01:24:56;;;;;;;4.57;1.10;;;;;;;15.04;100.00;101808.56;2015961;29;20048;-70
2022/07/22 01:25:59;;;;;;;4.82;1.17;;;;;;;15.04;100.00;101813.06;2016177;29;20053;-70
2022/07/22 01:27:03;;;;;;;6.30;1.30;;;;;;;15.04;100.00;101802.28;2023964;29;20037;-70
2022/07/22 01:28:05;;;;;;;4.95;1.23;;;;;;;15.03;100.00;101804.06;2023505;29;20416;-70
2022/07/22 01:29:08;;;;;;;5.72;1.00;;;;;;;15.05;100.00;101809.44;2024018;29;20963;-71
2022/07/22 01:30:10;;;;;;;5.18;1.00;;;;;;;15.04;100.00;101802.28;2023957;29;20045;-70
2022/07/22 01:31:12;;;;;;;4.28;1.00;;;;;;;15.05;100.00;101804.03;2015819;29;30721;-71
2022/07/22 01:32:17;;;;;;;6.32;1.10;;;;;;;15.06;100.00;101805.81;2015611;29;20046;-71
2022/07/22 01:33:21;;;;;;;4.47;1.40;;;;;;;15.07;100.00;101802.19;2017195;29;20842;-70
2022/07/22 01:34:24;;;;;;;8.68;1.10;;;;;;;15.05;100.00;101804.03;2015734;29;20042;-70
2022/07/22 01:35:27;;;;;;;4.03;1.20;;;;;;;15.06;100.00;101795.03;2009136;29;20109;-70
2022/07/22 01:36:29;;;;;;;4.65;1.17;;;;;;;15.07;100.00;101802.19;2015878;29;20054;-70
2022/07/22 01:37:34;;;;;;;7.75;1.40;;;;;;;15.06;100.00;101800.44;2023951;29;20136;-71
2022/07/22 01:38:37;;;;;;;5.65;1.35;;;;;;;15.05;100.00;101804.03;2008034;29;20258;-70
2022/07/22 01:39:38;;;;;;;6.53;1.77;;;;;;;15.06;100.00;101805.81;2008370;29;20141;-70
2022/07/22 01:40:41;;;;;;;5.97;1.42;;;;;;;15.06;100.00;101813.91;2015775;29;20252;-70
2022/07/22 01:41:44;;;;;;;4.93;1.10;;;;;;;15.03;100.00;101798.69;2008304;29;20112;-70
2022/07/22 01:42:47;;;;;;;6.63;1.20;;;;;;;15.03;100.00;101800.50;2015812;29;20125;-70
2022/07/22 01:43:51;;;;;;;5.93;1.30;;;;;;;15.01;100.00;101800.53;2016188;29;20141;-71
2022/07/22 01:44:53;;;;;;;4.68;1.20;;;;;;;15.00;100.00;101798.78;2015709;29;20886;-70
2022/07/22 01:45:55;;;;;;;5.90;1.17;;;;;;;14.99;100.00;101812.31;2016330;29;20242;-70
2022/07/22 01:46:58;;;;;;;8.60;1.88;;;;;;;14.99;100.00;101807.78;2015575;29;20052;-70
2022/07/22 01:48:00;;;;;;;7.80;1.70;;;;;;;14.98;100.00;101807.84;2015526;29;31769;-70
2022/07/22 01:49:03;;;;;;;4.13;1.40;;;;;;;14.97;100.00;101815.03;2008295;29;20054;-70
2022/07/22 01:50:12;;;;;;;7.25;2.00;;;;;;;14.98;100.00;101807.84;2009332;29;20147;-70
2022/07/22 01:51:14;;;;;;;6.68;1.75;;;;;;;14.96;100.00;101807.00;2015449;29;20050;-70
2022/07/22 01:52:18;;;;;;;5.18;1.70;;;;;;;14.94;100.00;101809.72;2016155;29;20879;-70
2022/07/22 01:53:20;;;;;;;9.13;1.48;;;;;;;14.93;100.00;101807.97;2016283;29;20054;-70
2022/07/22 01:54:22;;;;;;;9.30;1.65;;;;;;;14.93;100.00;101804.38;2008667;29;20876;-70
2022/07/22 01:55:24;;;;;;;4.63;1.73;;;;;;;14.95;100.00;101819.59;2015508;29;20217;-71
2022/07/22 01:56:26;;;;;;;9.43;1.92;;;;;;;14.97;100.00;101811.47;2016100;29;20046;-70
2022/07/22 01:57:27;;;;;;;9.00;1.58;;;;;;;14.95;100.00;101810.59;2015656;29;20078;-70
2022/07/22 01:58:29;;;;;;;5.75;1.60;;;;;;;14.91;100.00;101811.63;2016236;29;20057;-70
2022/07/22 01:59:38;;;;;;;6.90;1.55;;;;;;;14.94;100.00;101811.56;2016250;29;20038;-70
2022/07/22 02:00:41;;;;;;;5.03;1.10;;;;;;;14.95;100.00;101816.00;2016135;29;20053;-70
2022/07/22 02:01:43;;;;;;;6.22;1.38;;;;;;;14.93;100.00;101815.16;2015836;29;20049;-71
2022/07/22 02:02:45;;;;;;;6.50;1.20;;;;;;;14.93;100.00;101815.16;2015969;29;20061;-70
2022/07/22 02:03:50;;;;;;;8.30;1.73;;;;;;;14.91;100.00;101812.50;2015909;29;20057;-70
2022/07/22 02:04:52;;;;;;;6.82;1.33;;;;;;;14.92;100.00;101813.41;2023506;29;20073;-70
2022/07/22 02:05:55;;;;;;;6.78;1.52;;;;;;;14.92;100.00;101814.28;2023229;29;20081;-70
2022/07/22 02:07:01;;;;;;;5.00;1.67;;;;;;;14.92;100.00;101811.59;2023302;29;20045;-70
2022/07/22 02:08:07;;;;;;;7.32;1.30;;;;;;;14.94;100.00;101803.47;2023063;29;20144;-70
2022/07/22 02:09:34;;;;;;;9.40;1.55;;;;;;;14.93;100.00;101809.75;2020115;29;20053;-70
2022/07/22 02:10:39;;;;;;;5.72;1.73;;;;;;;14.93;100.00;101807.97;2016722;29;20152;-70
2022/07/22 02:11:41;;;;;;;9.60;1.60;;;;;;;14.93;100.00;101812.47;2023464;29;20052;-70
2022/07/22 02:12:46;;;;;;;6.18;1.55;;;;;;;14.92;100.00;101810.72;2016166;29;20046;-70
2022/07/22 02:13:48;;;;;;;7.15;1.48;;;;;;;14.92;100.00;101811.59;2015757;29;20129;-70
2022/07/22 02:15:16;;;;;;;7.57;1.48;;;;;;;14.93;100.00;101804.38;2040309;23;20105;31
2022/07/22 02:16:22;;;;;;;4.45;1.23;;;;;;;14.91;100.00;101808.94;2012795;29;20847;-71
2022/07/22 02:17:25;;;;;;;7.63;1.58;;;;;;;14.87;100.00;101814.41;2000423;29;21039;-71
2022/07/22 02:18:30;;;;;;;8.10;1.45;;;;;;;14.87;100.00;101811.69;2000953;29;20058;-71
2022/07/22 02:19:32;;;;;;;6.43;1.30;;;;;;;14.88;100.00;101812.59;2015521;29;20077;-71
2022/07/22 02:20:34;;;;;;;7.88;1.38;;;;;;;14.88;100.00;101815.31;2015900;29;20488;-71
2022/07/22 02:21:38;;;;;;;8.63;1.30;;;;;;;14.87;100.00;101808.13;2008017;29;20180;-71
2022/07/22 02:22:39;;;;;;;4.85;1.45;;;;;;;14.87;100.00;101810.81;2009141;29;20169;-71
2022/07/22 02:23:41;;;;;;;4.53;1.25;;;;;;;14.88;100.00;101818.88;2002049;29;20046;-71
2022/07/22 02:24:44;;;;;;;8.82;1.50;;;;;;;14.86;100.00;101820.72;1994479;29;20039;-71
2022/07/22 02:25:47;;;;;;;5.38;1.20;;;;;;;14.85;100.00;101820.78;2009400;29;20049;-71
2022/07/22 02:26:49;;;;;;;9.90;1.70;;;;;;;14.85;100.00;101820.78;2001539;29;20047;-70
2022/07/22 02:27:51;;;;;;;6.15;1.00;;;;;;;14.86;100.00;101815.34;2002052;29;20162;-71
2022/07/22 02:28:53;;;;;;;8.65;1.17;;;;;;;14.85;100.00;101818.06;2009263;29;20219;-71
2022/07/22 02:29:56;;;;;;;6.25;1.20;;;;;;;14.86;100.00;101819.84;2009405;29;20041;-71
2022/07/22 02:31:02;;;;;;;9.40;1.33;;;;;;;14.85;100.00;101818.06;2009297;29;20815;-70
2022/07/22 02:32:04;;;;;;;4.50;1.10;;;;;;;14.85;100.00;101818.94;2002162;29;20188;-71
2022/07/22 02:33:09;;;;;;;7.28;1.23;;;;;;;14.85;100.00;101816.25;2009191;29;20831;-70
2022/07/22 02:34:13;;;;;;;7.00;1.30;;;;;;;14.85;100.00;101818.94;2009784;29;20084;-71
2022/07/22 02:35:15;;;;;;;7.47;1.20;;;;;;;14.84;100.00;101825.28;2016698;29;20030;-71
2022/07/22 02:36:17;;;;;;;6.80;1.60;;;;;;;14.85;100.00;101818.06;2017185;29;20926;-70
2022/07/22 02:37:19;;;;;;;6.32;1.25;;;;;;;14.83;100.00;101818.09;2016534;29;21017;-71
2022/07/22 02:38:21;;;;;;;5.15;1.10;;;;;;;14.86;100.00;101819.84;2017116;29;21983;-71
2022/07/22 02:39:23;;;;;;;5.00;1.10;;;;;;;14.85;100.00;101818.06;2009380;29;22847;-71
2022/07/22 02:40:25;;;;;;;6.63;1.10;;;;;;;14.84;100.00;101817.19;2009161;29;20206;-71
2022/07/22 02:41:30;;;;;;;5.88;1.23;;;;;;;14.85;100.00;101812.69;2009130;29;20050;-71
2022/07/22 02:42:34;;;;;;;3.83;1.00;;;;;;;14.85;100.00;101821.66;2016702;29;20167;-71
2022/07/22 02:43:41;;;;;;;6.78;1.60;;;;;;;14.84;100.00;101817.19;2009809;29;20053;-71
2022/07/22 02:44:43;;;;;;;7.72;1.00;;;;;;;14.84;100.00;101811.81;2009206;29;20880;-71
2022/07/22 02:45:45;;;;;;;6.10;1.27;;;;;;;14.84;100.00;101814.50;2001754;29;20096;-71
2022/07/22 02:46:47;;;;;;;3.55;1.13;;;;;;;14.83;100.00;101820.81;2004487;29;20046;-71
2022/07/22 02:47:59;;;;;;;5.22;1.25;;;;;;;14.84;100.00;101817.19;2008315;29;20916;-71
2022/07/22 02:49:04;;;;;;;2.72;0.80;;;;;;;14.83;100.00;101819.94;2002205;29;20081;-71
2022/07/22 02:50:06;;;;;;;5.20;1.30;;;;;;;14.85;100.00;101823.47;2009473;29;20082;-69
2022/07/22 02:51:10;;;;;;;5.72;1.00;;;;;;;14.83;100.00;101815.41;2008856;29;21042;-69
2022/07/22 02:52:12;;;;;;;4.03;0.90;;;;;;;14.81;100.00;101822.66;2009350;29;20081;-69
2022/07/22 02:53:17;;;;;;;5.35;1.40;;;;;;;14.83;100.00;101810.03;2009031;29;20884;-69
2022/07/22 02:54:19;;;;;;;7.05;1.30;;;;;;;14.81;100.00;101821.78;2001550;29;20063;-69
2022/07/22 02:55:21;;;;;;;7.43;1.10;;;;;;;14.80;100.00;101814.59;2009424;29;20789;-67
2022/07/22 02:56:25;;;;;;;5.65;1.15;;;;;;;14.80;100.00;101815.47;2009470;29;20183;-70
2022/07/22 02:57:27;;;;;;;6.70;1.13;;;;;;;14.79;100.00;101813.72;2001482;29;20198;-68
2022/07/22 02:58:30;;;;;;;7.53;1.35;;;;;;;14.80;100.00;101814.59;2002017;29;20055;-69
2022/07/22 02:59:31;;;;;;;6.05;1.35;;;;;;;14.81;100.00;101819.09;2009105;29;20164;-69
2022/07/22 03:00:35;;;;;;;6.43;1.08;;;;;;;14.80;100.00;101815.47;2009094;29;20161;-69
2022/07/22 03:01:37;;;;;;;5.68;1.30;;;;;;;14.81;100.00;101821.78;2009765;29;20165;-69
2022/07/22 03:02:42;;;;;;;4.35;1.23;;;;;;;14.80;100.00;101818.19;2008499;29;20873;-69
2022/07/22 03:03:46;;;;;;;5.38;1.40;;;;;;;14.78;100.00;101816.47;2009128;29;20046;-69
2022/07/22 03:04:48;;;;;;;5.72;1.20;;;;;;;14.78;100.00;101821.84;2016985;29;20054;-69
2022/07/22 03:05:50;;;;;;;6.63;1.40;;;;;;;14.77;100.00;101818.28;2016736;29;20049;-69
2022/07/22 03:07:05;;;;;;;3.97;1.20;;;;;;;14.75;100.00;101819.22;2009499;29;20231;-69
2022/07/22 03:08:07;;;;;;;5.97;1.33;;;;;;;14.75;100.00;101827.31;2001142;29;20102;-69
2022/07/22 03:09:09;;;;;;;7.97;1.33;;;;;;;14.75;100.00;101827.31;2009220;29;20164;-69
2022/07/22 03:10:15;;;;;;;7.65;1.50;;;;;;;14.74;100.00;101825.56;2016151;29;20045;-69
2022/07/22 03:11:19;;;;;;;7.22;1.23;;;;;;;14.71;100.00;101823.81;1993783;29;20075;-69
2022/07/22 03:12:21;;;;;;;6.82;1.60;;;;;;;14.72;100.00;101828.31;2001829;29;20050;-71
2022/07/22 03:13:23;;;;;;;6.38;1.70;;;;;;;14.72;100.00;101831.00;2009168;29;20038;-69
2022/07/22 03:14:25;;;;;;;5.22;1.20;;;;;;;14.73;100.00;101829.19;2008653;29;26251;-69
2022/07/22 03:15:29;;;;;;;9.60;1.60;;;;;;;14.72;100.00;101836.38;2016340;29;20042;-70
2022/07/22 03:16:31;;;;;;;6.25;1.50;;;;;;;14.71;100.00;101831.91;2008869;29;20054;-70
2022/07/22 03:17:35;;;;;;;9.68;1.80;;;;;;;14.70;100.00;101827.47;2001286;29;20038;-70
2022/07/22 03:18:38;;;;;;;8.02;1.85;;;;;;;14.70;100.00;101832.84;2008457;29;20062;-70
2022/07/22 03:19:40;;;;;;;7.45;1.30;;;;;;;14.71;100.00;101831.91;2001454;29;20134;-70
2022/07/22 03:20:42;;;;;;;6.97;1.63;;;;;;;14.69;100.00;101828.38;2008777;29;20045;-70
2022/07/22 03:21:44;;;;;;;9.18;1.50;;;;;;;14.69;100.00;101831.94;2016780;29;21002;-70
2022/07/22 03:22:46;;;;;;;5.63;1.35;;;;;;;14.69;100.00;101828.38;2008792;29;20046;-70
2022/07/22 03:23:53;;;;;;;6.05;1.42;;;;;;;14.68;100.00;101835.59;2009443;29;20125;-70
2022/07/22 03:24:55;;;;;;;7.18;1.70;;;;;;;14.68;100.00;101832.88;2000963;29;20046;-70
2022/07/22 03:25:58;;;;;;;5.60;1.42;;;;;;;14.66;100.00;101823.03;2001427;29;20054;-70
2022/07/22 03:27:00;;;;;;;6.30;1.65;;;;;;;14.63;100.00;101824.03;2008974;29;20034;-70
2022/07/22 03:28:05;;;;;;;7.10;1.70;;;;;;;14.66;100.00;101826.66;2008829;29;20062;-70
2022/07/22 03:29:10;;;;;;;8.43;1.52;;;;;;;14.63;100.00;101826.72;1993517;29;20055;-71
2022/07/22 03:30:17;;;;;;;10.25;2.08;;;;;;;14.64;100.00;101817.72;1994856;29;20039;-70
2022/07/22 03:31:19;;;;;;;6.25;1.95;;;;;;;14.64;100.00;101825.81;2001288;29;20066;-70
2022/07/22 03:32:21;;;;;;;9.18;1.98;;;;;;;14.65;100.00;101826.69;1993877;29;20054;-70
2022/07/22 03:33:23;;;;;;;3.72;1.42;;;;;;;14.66;100.00;101823.97;1985920;29;20797;-70
2022/07/22 03:34:26;;;;;;;7.60;1.33;;;;;;;14.65;100.00;101824.00;2006338;24;20177;-66
2022/07/22 03:35:36;;;;;;;8.38;1.52;;;;;;;14.65;100.00;101826.69;2003423;29;20089;-64
2022/07/22 03:36:38;;;;;;;12.70;1.75;;;;;;;14.62;100.00;101824.94;2001040;29;20949;-66
2022/07/22 03:37:43;;;;;;;5.38;1.60;;;;;;;14.60;100.00;101829.47;2001118;29;20046;-66
2022/07/22 03:38:44;;;;;;;6.75;1.52;;;;;;;14.62;100.00;101826.75;2001438;29;20139;-66
2022/07/22 03:39:47;;;;;;;4.97;1.40;;;;;;;14.60;100.00;101829.47;2001120;29;21119;-66
2022/07/22 03:40:49;;;;;;;7.40;1.55;;;;;;;14.61;100.00;101827.69;2008388;29;20053;-66
2022/07/22 03:41:51;;;;;;;7.20;1.90;;;;;;;14.59;100.00;101830.44;1993472;29;20127;-66
2022/07/22 03:42:53;;;;;;;5.40;1.25;;;;;;;14.60;100.00;101828.59;2001170;29;20038;-66
2022/07/22 03:43:54;;;;;;;8.00;1.67;;;;;;;14.60;100.00;101836.69;2008551;29;20061;-67
2022/07/22 03:44:56;;;;;;;16.48;1.60;;;;;;;14.59;100.00;101826.81;2016727;29;20045;-66
2022/07/22 03:45:58;;;;;;;11.68;1.98;;;;;;;14.60;100.00;101836.69;2016807;29;20819;-66
2022/07/22 03:47:00;;;;;;;7.35;1.85;;;;;;;14.58;100.00;101836.72;2002185;29;20073;-66
2022/07/22 03:48:05;;;;;;;7.47;1.60;;;;;;;14.59;100.00;101830.44;2008578;29;20166;-66
2022/07/22 03:49:11;;;;;;;6.35;1.90;;;;;;;14.59;100.00;101832.22;2001399;29;20962;-65
2022/07/22 03:50:13;;;;;;;8.13;1.80;;;;;;;14.59;100.00;101841.22;2000958;29;20085;-65
2022/07/22 03:51:15;;;;;;;5.35;1.45;;;;;;;14.62;100.00;101837.53;2016700;29;20034;-65
2022/07/22 03:52:18;;;;;;;9.43;1.85;;;;;;;14.64;100.00;101835.69;2015876;29;20057;-65
2022/07/22 03:53:20;;;;;;;8.65;1.70;;;;;;;14.64;100.00;101835.69;2008995;29;20054;-65
2022/07/22 03:54:22;;;;;;;7.38;2.05;;;;;;;14.63;100.00;101833.94;2001129;29;20098;-65
2022/07/22 03:55:29;;;;;;;8.18;1.65;;;;;;;14.64;100.00;101833.91;2008819;29;20063;-64
2022/07/22 03:56:32;;;;;;;6.63;1.67;;;;;;;14.65;100.00;101837.47;2001130;29;20046;-65
2022/07/22 03:57:33;;;;;;;8.27;1.60;;;;;;;14.65;100.00;101837.47;2001195;29;20050;-65
2022/07/22 03:58:50;;;;;;;7.93;1.42;;;;;;;14.67;100.00;101835.63;1995648;29;20047;-65
2022/07/22 03:59:52;;;;;;;5.88;1.40;;;;;;;14.67;100.00;101841.00;2001105;29;20246;-64
2022/07/22 04:00:54;;;;;;;5.63;1.42;;;;;;;14.67;100.00;101841.00;2008437;29;20054;-62
2022/07/22 04:01:56;;;;;;;7.43;1.70;;;;;;;14.67;100.00;101843.69;2016536;29;20900;-65
2022/07/22 04:02:58;;;;;;;7.78;1.42;;;;;;;14.68;100.00;101845.47;2016014;29;20772;-65
2022/07/22 04:04:18;;;;;;;;;;;;;;;14.67;100.00;101830.22;2002272;29;20046;-64
2022/07/22 04:05:20;;;;;;;6.63;1.50;;;;;;;14.68;100.00;101838.28;2018647;29;19920;-65
2022/07/22 04:06:24;;;;;;;13.45;2.47;;;;;;;14.68;100.00;101840.09;2008907;29;20410;-65
2022/07/22 04:07:33;;;;;;;7.28;2.00;;;;;;;14.70;100.00;101836.41;2002164;29;20161;-65
2022/07/22 04:08:35;;;;;;;7.43;1.85;;;;;;;14.68;100.00;101832.88;2000863;29;20046;-64
2022/07/22 04:09:37;;;;;;;5.47;1.08;;;;;;;14.69;100.00;101834.63;2009082;29;20042;-65
2022/07/22 04:10:45;;;;;;;6.30;1.73;;;;;;;14.71;100.00;101831.91;2015772;29;20080;-65
2022/07/22 04:11:47;;;;;;;7.88;1.90;;;;;;;14.72;100.00;101833.69;2016467;29;20922;-65
2022/07/22 04:12:49;;;;;;;7.55;1.85;;;;;;;14.72;100.00;101827.41;2008150;29;20186;-65
2022/07/22 04:14:05;;;;;;;10.65;1.92;;;;;;;14.73;100.00;101831.88;2010263;29;20922;-65
2022/07/22 04:15:09;;;;;;;8.18;1.60;;;;;;;14.73;100.00;101840.84;2008422;29;20172;-65
2022/07/22 04:16:10;;;;;;;7.53;1.48;;;;;;;14.74;100.00;101837.22;2001292;29;20157;-65
2022/07/22 04:17:22;;;;;;;5.82;1.73;;;;;;;14.74;100.00;101830.97;1994284;29;20057;-65
2022/07/22 04:18:27;;;;;;;8.38;2.30;;;;;;;14.74;100.00;101839.03;1993914;29;20891;-65
2022/07/22 04:19:29;;;;;;;9.77;1.90;;;;;;;14.75;100.00;101839.00;1993408;29;20062;-64
2022/07/22 04:20:35;;;;;;;6.60;1.52;;;;;;;14.76;100.00;101835.38;1993728;29;20893;-65
2022/07/22 04:22:03;;;;;;;7.35;2.20;;;;;;;14.77;100.00;101847.03;1996696;29;20146;-65
2022/07/22 04:23:05;;;;;;;6.95;2.00;;;;;;;14.78;100.00;101838.91;2000963;29;20960;-65
2022/07/22 04:24:11;;;;;;;9.75;2.08;;;;;;;14.78;100.00;101844.31;2008742;29;20993;-65
2022/07/22 04:25:13;;;;;;;7.85;2.00;;;;;;;14.79;100.00;101843.38;2000751;29;20108;-65
2022/07/22 04:26:14;;;;;;;6.63;1.85;;;;;;;14.82;100.00;101848.72;2008400;29;20089;-65
2022/07/22 04:27:16;;;;;;;10.63;2.55;;;;;;;14.82;100.00;101837.94;2008426;29;20971;-65
2022/07/22 04:28:18;;;;;;;8.63;2.03;;;;;;;14.84;100.00;101841.47;1993631;29;20055;-65
2022/07/22 04:29:20;;;;;;;6.18;2.33;;;;;;;14.86;100.00;101847.69;1993400;29;20185;-64
2022/07/22 04:30:22;;;;;;;6.13;2.28;;;;;;;14.88;100.00;101845.84;2008848;29;20134;-65
2022/07/22 04:31:25;;;;;;;12.00;2.50;;;;;;;14.88;100.00;101844.97;2008172;29;20928;-64
2022/07/22 04:32:34;;;;;;;8.23;2.40;;;;;;;14.88;100.00;101851.22;1994653;29;20064;-65
2022/07/22 04:33:37;;;;;;;8.63;2.13;;;;;;;14.92;100.00;101846.66;2000625;29;20143;-64
2022/07/22 04:34:38;;;;;;;8.75;2.17;;;;;;;14.92;100.00;101845.78;2008364;29;20168;-64
2022/07/22 04:35:43;;;;;;;9.93;2.53;;;;;;;14.94;100.00;101855.56;2016033;29;20153;-64
2022/07/22 04:36:51;;;;;;;7.70;2.10;;;;;;;14.96;100.00;101850.13;2007746;29;20167;-65
2022/07/22 04:37:53;;;;;;;9.00;2.22;;;;;;;14.96;100.00;101856.41;1993298;29;20057;-65
2022/07/22 04:38:55;;;;;;;6.30;2.63;;;;;;;14.97;100.00;101854.63;1993201;29;20062;-65
2022/07/22 04:39:58;;;;;;;7.63;2.50;;;;;;;14.98;100.00;101850.97;2008580;29;20046;-65
2022/07/22 04:41:01;;;;;;;10.05;2.13;;;;;;;14.98;100.00;101853.69;2016455;29;20046;-64
2022/07/22 04:42:04;;;;;;;10.32;2.42;;;;;;;14.99;100.00;101850.06;2008097;29;20057;-65
2022/07/22 04:43:07;;;;;;;9.15;2.35;;;;;;;15.00;100.00;101851.81;2016284;29;20042;-65
2022/07/22 04:44:09;;;;;;;8.63;2.13;;;;;;;15.02;100.00;101852.66;2008053;29;20050;-65
2022/07/22 04:45:11;;;;;;;5.03;1.90;;;;;;;15.02;100.00;101855.34;1993478;29;20043;-64
2022/07/22 04:46:13;;;;;;;8.23;1.50;;;;;;;15.06;100.00;101851.69;2008527;29;20049;-64
2022/07/22 04:47:17;;;;;;;8.90;1.52;;;;;;;15.07;100.00;101848.03;2016043;29;20046;-64
2022/07/22 04:48:23;;;;;;;7.03;2.03;;;;;;;15.10;100.00;101844.38;2008170;29;20262;-65
2022/07/22 04:49:25;;;;;;;8.60;2.17;;;;;;;15.11;100.00;101847.03;2000837;29;20112;-64
2022/07/22 04:50:30;;;;;;;14.98;2.67;;;;;;;15.12;100.00;101848.78;2001061;29;20061;-64
2022/07/22 04:51:33;;;;;;;8.05;2.22;;;;;;;15.13;100.00;101849.69;2008238;29;20900;-64